Time;durP1;ratioP1;P1;durP2;ratioP2;P2;SDS_P1;SDS_P2;PMS_P1;PMS_P2;Temp;Humidity;BMP_temperature;BMP_pressure;BME280_temperature;BME280_humidity;BME280_pressure;Samples;Min_cycle;Max_cycle;Signal;HPM_P1;HPM_P2
2022/01/09 00:01:05;;;;;;;7.18;6.30;;;4.70;98.40;;;;;;5053369;28;20222;-65
2022/01/09 00:03:33;;;;;;;6.90;5.72;;;4.70;98.30;;;;;;5053385;28;20286;-65
2022/01/09 00:06:00;;;;;;;6.80;5.55;;;4.70;98.20;;;;;;5050408;28;20214;-65
2022/01/09 00:08:27;;;;;;;6.50;5.90;;;4.70;98.00;;;;;;5053861;28;20241;-65
2022/01/09 00:10:55;;;;;;;6.95;6.20;;;4.70;97.80;;;;;;5053165;28;20250;-65
2022/01/09 00:13:21;;;;;;;5.78;5.10;;;4.70;97.90;;;;;;5053916;28;20301;-65
2022/01/09 00:15:48;;;;;;;13.48;6.03;;;4.70;97.80;;;;;;5053414;28;20231;-65
2022/01/09 00:18:15;;;;;;;9.30;6.18;;;4.60;97.80;;;;;;5052519;28;20236;-65
2022/01/09 00:20:43;;;;;;;5.85;5.35;;;4.60;97.80;;;;;;5053483;28;20580;-65
2022/01/09 00:23:12;;;;;;;6.35;5.43;;;4.60;97.60;;;;;;5045668;28;20248;-65
2022/01/09 00:25:39;;;;;;;6.97;5.28;;;4.70;97.60;;;;;;5053408;28;20691;-65
2022/01/09 00:28:05;;;;;;;6.70;5.75;;;4.70;97.40;;;;;;5052868;28;20247;-65
2022/01/09 00:30:32;;;;;;;6.70;5.68;;;4.70;97.40;;;;;;5053349;28;20236;-65
2022/01/09 00:32:59;;;;;;;7.45;4.55;;;4.80;97.00;;;;;;5052353;28;20579;-65
2022/01/09 00:35:26;;;;;;;9.85;5.85;;;4.70;97.00;;;;;;5053100;28;20232;-65
2022/01/09 00:37:54;;;;;;;5.90;5.30;;;4.70;97.10;;;;;;5052846;28;20226;-65
2022/01/09 00:40:21;;;;;;;7.18;5.13;;;4.80;96.90;;;;;;5052859;28;21082;-65
2022/01/09 00:42:48;;;;;;;5.03;4.55;;;4.70;96.90;;;;;;5049439;28;20221;-65
2022/01/09 00:45:16;;;;;;;6.05;5.45;;;4.70;96.60;;;;;;5052795;28;20222;-65
2022/01/09 00:47:43;;;;;;;7.00;5.10;;;4.80;97.00;;;;;;5052975;28;20296;-66
2022/01/09 00:50:12;;;;;;;6.72;5.70;;;4.80;96.70;;;;;;5052010;28;20230;-65
2022/01/09 00:52:39;;;;;;;6.07;5.18;;;4.70;96.60;;;;;;5052840;28;20233;-65
2022/01/09 00:55:09;;;;;;;8.23;5.55;;;4.60;96.50;;;;;;5052365;28;20236;-65
2022/01/09 00:57:36;;;;;;;5.53;5.03;;;4.40;96.70;;;;;;5052965;28;20226;-65
2022/01/09 01:00:04;;;;;;;8.52;6.20;;;4.40;97.00;;;;;;5038731;28;20695;-65
2022/01/09 01:02:31;;;;;;;6.13;5.38;;;4.40;97.10;;;;;;5052821;28;20229;-65
2022/01/09 01:04:58;;;;;;;6.03;5.43;;;4.30;97.00;;;;;;5047053;28;20232;-65
2022/01/09 01:07:27;;;;;;;5.97;5.47;;;4.30;97.00;;;;;;5052673;28;20680;-65
2022/01/09 01:09:56;;;;;;;6.97;5.30;;;4.30;97.20;;;;;;5052165;28;20308;-66
2022/01/09 01:12:25;;;;;;;7.05;5.70;;;4.20;97.10;;;;;;5052817;28;20232;-65
2022/01/09 01:14:52;;;;;;;6.85;5.78;;;4.20;97.20;;;;;;5052644;28;20253;-65
2022/01/09 01:17:19;;;;;;;5.55;5.05;;;4.20;97.30;;;;;;5052084;28;20229;-65
2022/01/09 01:19:47;;;;;;;7.68;5.70;;;4.20;97.10;;;;;;5052291;28;20752;-65
2022/01/09 01:22:14;;;;;;;9.75;6.10;;;4.10;97.20;;;;;;5051884;28;20244;-65
2022/01/09 01:24:41;;;;;;;5.90;5.30;;;4.10;97.40;;;;;;5052253;28;20224;-65
2022/01/09 01:27:08;;;;;;;5.78;5.18;;;4.10;97.40;;;;;;5052076;28;20232;-65
2022/01/09 01:29:37;;;;;;;7.32;5.45;;;4.10;97.50;;;;;;5052042;28;20228;-65
2022/01/09 01:32:05;;;;;;;11.00;7.07;;;4.10;97.50;;;;;;5051367;28;20302;-65
2022/01/09 01:34:33;;;;;;;8.07;6.28;;;4.00;97.50;;;;;;5052442;28;20236;-66
2022/01/09 01:37:00;;;;;;;6.30;5.78;;;4.00;97.60;;;;;;5051823;28;20225;-66
2022/01/09 01:39:27;;;;;;;8.02;6.10;;;4.00;97.70;;;;;;5052277;28;20619;-66
2022/01/09 01:41:54;;;;;;;7.70;6.85;;;3.90;97.60;;;;;;5048325;28;20212;-66
2022/01/09 01:44:21;;;;;;;8.77;6.10;;;3.90;97.60;;;;;;5051770;28;20231;-66
2022/01/09 01:46:49;;;;;;;8.48;6.47;;;3.90;97.60;;;;;;5052218;28;20221;-66
2022/01/09 01:49:15;;;;;;;12.45;6.15;;;3.90;97.70;;;;;;5041775;28;20237;-66
2022/01/09 01:51:44;;;;;;;7.25;6.38;;;3.80;97.60;;;;;;5051139;28;20240;-65
2022/01/09 01:54:12;;;;;;;9.13;6.88;;;3.90;97.80;;;;;;5049930;28;20318;-65
2022/01/09 01:56:39;;;;;;;9.05;6.72;;;3.90;97.80;;;;;;5050492;28;20225;-65
2022/01/09 01:59:06;;;;;;;9.70;6.40;;;3.90;97.90;;;;;;5050343;28;20217;-65
2022/01/09 02:01:36;;;;;;;7.13;6.00;;;3.90;97.60;;;;;;5051051;28;20573;-65
2022/01/09 02:04:05;;;;;;;6.32;5.60;;;3.80;97.60;;;;;;5051048;28;20547;-65
2022/01/09 02:06:34;;;;;;;8.50;6.15;;;3.80;97.80;;;;;;5046690;28;20220;-65
2022/01/09 02:09:00;;;;;;;6.38;5.72;;;3.90;97.80;;;;;;5051698;28;20354;-65
2022/01/09 02:11:28;;;;;;;7.38;5.80;;;3.90;97.80;;;;;;5051943;28;20221;-65
2022/01/09 02:13:54;;;;;;;7.88;5.97;;;4.00;97.60;;;;;;5051852;28;20217;-65
2022/01/09 02:16:22;;;;;;;7.20;6.50;;;3.90;97.50;;;;;;5050947;28;20570;-66
2022/01/09 02:18:50;;;;;;;6.80;6.20;;;3.90;97.60;;;;;;5050127;28;20298;-66
2022/01/09 02:21:19;;;;;;;7.95;6.25;;;3.90;97.70;;;;;;5050780;28;20699;-66
2022/01/09 02:23:47;;;;;;;7.22;6.10;;;3.90;97.50;;;;;;5050270;28;20235;-66
2022/01/09 02:26:18;;;;;;;13.05;7.13;;;3.90;97.40;;;;;;5051434;28;20316;-66
2022/01/09 02:28:45;;;;;;;7.85;6.32;;;4.00;97.50;;;;;;5051891;28;20254;-65
2022/01/09 02:31:12;;;;;;;7.35;5.97;;;4.00;97.20;;;;;;5051258;28;20679;-65
2022/01/09 02:33:39;;;;;;;6.60;5.95;;;4.00;97.30;;;;;;5051916;28;20251;-65
2022/01/09 02:36:06;;;;;;;9.45;6.05;;;4.00;97.40;;;;;;5051145;28;20233;-65
2022/01/09 02:38:34;;;;;;;9.95;6.85;;;4.00;97.20;;;;;;5051798;28;20281;-65
2022/01/09 02:41:01;;;;;;;8.32;6.85;;;4.00;97.10;;;;;;5050550;28;20224;-65
2022/01/09 02:43:28;;;;;;;9.00;7.00;;;4.00;97.30;;;;;;5044645;28;20225;-65
2022/01/09 02:46:04;;;;;;;7.97;5.82;;;4.00;97.20;;;;;;5055366;28;20225;-66
2022/01/09 02:48:35;;;;;;;7.70;6.10;;;3.90;97.30;;;;;;5052592;28;20223;-66
2022/01/09 02:51:07;;;;;;;6.05;5.55;;;3.90;97.30;;;;;;5053836;28;20235;-65
2022/01/09 02:53:37;;;;;;;7.75;6.70;;;3.90;97.40;;;;;;5054506;28;20247;-66
2022/01/09 02:56:05;;;;;;;8.05;5.72;;;4.00;97.40;;;;;;5054512;28;20283;-66
2022/01/09 02:58:33;;;;;;;9.25;6.82;;;4.00;97.30;;;;;;5054546;28;20218;-66
2022/01/09 03:01:00;;;;;;;7.65;5.90;;;4.00;97.40;;;;;;5054599;28;20230;-65
2022/01/09 03:03:27;;;;;;;8.45;6.93;;;4.00;97.50;;;;;;5054582;28;20717;-65
2022/01/09 03:05:54;;;;;;;10.18;6.78;;;4.00;97.30;;;;;;5054892;28;20225;-65
2022/01/09 03:08:21;;;;;;;9.32;6.75;;;4.10;97.30;;;;;;5054305;28;20217;-65
2022/01/09 03:10:49;;;;;;;7.68;6.68;;;4.10;97.20;;;;;;5055014;28;20235;-65
2022/01/09 03:13:15;;;;;;;6.75;6.05;;;4.10;97.30;;;;;;5054458;28;20225;-65
2022/01/09 03:15:42;;;;;;;9.43;6.13;;;4.10;97.10;;;;;;5054773;28;20231;-65
2022/01/09 03:18:10;;;;;;;8.75;6.35;;;4.00;97.20;;;;;;5054816;28;20793;-65
2022/01/09 03:20:37;;;;;;;8.93;6.53;;;4.00;97.30;;;;;;5054526;28;21044;-65
2022/01/09 03:23:04;;;;;;;9.57;7.05;;;3.90;97.40;;;;;;5042689;28;20702;-65
2022/01/09 03:25:31;;;;;;;7.43;6.57;;;3.90;97.40;;;;;;5054451;28;20228;-65
2022/01/09 03:28:00;;;;;;;8.20;6.28;;;3.90;97.50;;;;;;5054368;28;20217;-65
2022/01/09 03:30:27;;;;;;;8.52;6.72;;;3.90;97.40;;;;;;5054119;28;20237;-65
2022/01/09 03:32:55;;;;;;;9.60;5.60;;;3.90;97.50;;;;;;5054345;28;20234;-65
2022/01/09 03:35:24;;;;;;;6.70;6.10;;;3.80;97.50;;;;;;5054076;28;20225;-65
2022/01/09 03:37:52;;;;;;;7.90;7.10;;;3.80;97.50;;;;;;5054020;28;20229;-65
2022/01/09 03:40:22;;;;;;;7.30;6.60;;;3.90;97.90;;;;;;5051546;28;20233;-65
2022/01/09 03:42:51;;;;;;;7.00;5.70;;;3.90;97.60;;;;;;5046108;28;20223;-66
2022/01/09 03:45:20;;;;;;;6.72;5.72;;;3.80;97.70;;;;;;5053791;28;20240;-66
2022/01/09 03:47:47;;;;;;;9.85;6.15;;;3.80;97.70;;;;;;5054099;28;20223;-66
2022/01/09 03:50:16;;;;;;;12.63;6.78;;;3.90;97.60;;;;;;5053986;28;20243;-66
2022/01/09 03:52:43;;;;;;;8.65;5.97;;;3.90;97.50;;;;;;5053690;28;20855;-66
2022/01/09 03:55:12;;;;;;;11.40;6.63;;;3.90;97.60;;;;;;5053983;28;20322;-66
2022/01/09 03:57:40;;;;;;;9.05;6.80;;;3.80;97.60;;;;;;5053449;28;20239;-65
2022/01/09 04:00:11;;;;;;;7.22;5.70;;;3.90;97.60;;;;;;5053878;28;20232;-65
2022/01/09 04:02:39;;;;;;;5.95;5.10;;;4.00;97.50;;;;;;5053587;28;20220;-65
2022/01/09 04:05:07;;;;;;;7.90;6.30;;;3.90;97.70;;;;;;5053911;28;20226;-66
2022/01/09 04:07:35;;;;;;;9.15;6.05;;;4.00;97.60;;;;;;5053249;28;20565;-66
2022/01/09 04:10:02;;;;;;;9.95;6.53;;;4.00;97.50;;;;;;5053738;28;20248;-66
2022/01/09 04:12:35;;;;;;;10.30;6.25;;;4.00;97.60;;;;;;5053315;28;20784;-64
2022/01/09 04:15:06;;;;;;;10.63;5.88;;;3.90;97.40;;;;;;5053634;28;20221;-65
2022/01/09 04:17:45;;;;;;;7.35;6.65;;;3.90;97.60;;;;;;5052938;28;20221;-65
2022/01/09 04:20:13;;;;;;;8.65;5.90;;;3.90;97.60;;;;;;5053616;28;20229;-65
2022/01/09 04:22:41;;;;;;;7.80;5.70;;;3.90;97.50;;;;;;5045959;28;20230;-65
2022/01/09 04:25:09;;;;;;;7.97;7.00;;;3.90;97.50;;;;;;5053362;28;20601;-64
2022/01/09 04:27:37;;;;;;;6.10;5.50;;;3.80;97.50;;;;;;5053146;28;20210;-65
2022/01/09 04:30:05;;;;;;;7.53;6.03;;;3.80;97.60;;;;;;5053314;28;20247;-66
2022/01/09 04:32:32;;;;;;;7.05;5.95;;;3.60;97.60;;;;;;5052879;28;20582;-66
2022/01/09 04:34:59;;;;;;;6.55;4.97;;;3.60;98.10;;;;;;5053360;28;20233;-65
2022/01/09 04:37:28;;;;;;;5.78;5.20;;;3.70;98.00;;;;;;5050578;28;20232;-65
2022/01/09 04:39:55;;;;;;;5.65;5.05;;;3.60;97.80;;;;;;5053005;28;20232;-65
2022/01/09 04:42:29;;;;;;;8.73;5.60;;;3.60;97.90;;;;;;5046032;28;20288;-65
2022/01/09 04:44:55;;;;;;;11.70;5.97;;;3.60;97.90;;;;;;5052978;28;20695;-65
2022/01/09 04:47:22;;;;;;;6.43;5.82;;;3.70;98.10;;;;;;5052741;28;20240;-65
2022/01/09 04:49:50;;;;;;;6.05;5.15;;;3.80;97.90;;;;;;5052772;28;20235;-65
2022/01/09 04:52:20;;;;;;;5.35;4.82;;;3.70;97.80;;;;;;5052864;28;20783;-66
2022/01/09 04:54:48;;;;;;;7.25;5.13;;;3.70;97.80;;;;;;5052506;28;21251;-66
2022/01/09 04:57:15;;;;;;;7.97;4.50;;;3.70;97.70;;;;;;5053096;28;20226;-66
2022/01/09 04:59:42;;;;;;;7.45;5.30;;;3.80;97.90;;;;;;5052331;28;20315;-66
2022/01/09 05:02:09;;;;;;;6.80;5.15;;;3.80;97.70;;;;;;5052959;28;20222;-66
2022/01/09 05:04:36;;;;;;;5.68;5.07;;;3.80;97.50;;;;;;5051887;28;20229;-66
2022/01/09 05:07:03;;;;;;;4.32;4.00;;;3.80;97.50;;;;;;5046433;28;20232;-66
2022/01/09 05:09:30;;;;;;;5.40;4.25;;;3.90;97.60;;;;;;5052253;28;20597;-66
2022/01/09 05:11:59;;;;;;;7.38;4.63;;;3.90;97.20;;;;;;5052742;28;20244;-64
2022/01/09 05:14:25;;;;;;;6.35;5.40;;;3.90;97.20;;;;;;5048654;28;20570;-64
2022/01/09 05:16:52;;;;;;;4.88;4.43;;;3.90;97.10;;;;;;5052479;28;20240;-65
2022/01/09 05:19:21;;;;;;;8.10;4.00;;;4.00;97.30;;;;;;5052656;28;20224;-65
2022/01/09 05:21:49;;;;;;;5.30;4.40;;;4.00;97.00;;;;;;5051916;28;20247;-65
2022/01/09 05:24:17;;;;;;;6.05;4.10;;;3.90;97.00;;;;;;5052475;28;20695;-65
2022/01/09 05:26:44;;;;;;;9.55;5.70;;;3.90;97.10;;;;;;5052254;28;20225;-64
2022/01/09 05:29:12;;;;;;;7.10;4.55;;;4.00;97.10;;;;;;5052356;28;20226;-65
2022/01/09 05:31:40;;;;;;;5.53;4.28;;;4.00;97.10;;;;;;5051976;28;20226;-65
2022/01/09 05:34:07;;;;;;;6.95;4.72;;;4.00;97.00;;;;;;5039129;28;20230;-65
2022/01/09 05:36:34;;;;;;;6.38;4.00;;;4.10;97.00;;;;;;5048983;28;20228;-65
2022/01/09 05:39:01;;;;;;;5.13;4.65;;;4.00;97.00;;;;;;5052160;28;20237;-65
2022/01/09 05:41:29;;;;;;;4.72;3.80;;;4.00;97.00;;;;;;5042974;28;20227;-65
2022/01/09 05:43:56;;;;;;;7.10;4.65;;;4.00;97.00;;;;;;5052223;28;20229;-65
2022/01/09 05:46:24;;;;;;;7.10;4.80;;;4.10;97.00;;;;;;5052391;28;20222;-65
2022/01/09 05:48:51;;;;;;;5.85;5.35;;;4.10;96.90;;;;;;5051967;28;20218;-65
2022/01/09 05:51:18;;;;;;;8.05;4.55;;;4.00;96.90;;;;;;5052160;28;20227;-65
2022/01/09 05:53:45;;;;;;;8.25;5.95;;;4.00;97.10;;;;;;5051157;28;20221;-64
2022/01/09 05:56:12;;;;;;;6.22;5.03;;;3.90;97.10;;;;;;5052243;28;20217;-65
2022/01/09 05:58:39;;;;;;;9.18;5.07;;;3.90;97.10;;;;;;5051415;28;20325;-65
2022/01/09 06:01:07;;;;;;;7.15;5.47;;;3.80;97.20;;;;;;5052321;28;20316;-65
2022/01/09 06:03:36;;;;;;;4.75;4.25;;;3.80;97.20;;;;;;5051771;28;20235;-65
2022/01/09 06:06:03;;;;;;;6.43;4.80;;;3.80;97.20;;;;;;5046851;28;20229;-65
2022/01/09 06:08:30;;;;;;;6.40;4.80;;;3.80;97.10;;;;;;5051864;28;20693;-64
2022/01/09 06:10:57;;;;;;;5.60;5.03;;;3.80;97.30;;;;;;5051959;28;20227;-65
2022/01/09 06:13:23;;;;;;;6.10;4.43;;;3.90;97.40;;;;;;5052090;28;20688;-65
2022/01/09 06:15:50;;;;;;;5.93;4.75;;;3.80;97.10;;;;;;5053332;28;20232;-66
2022/01/09 06:18:19;;;;;;;6.55;5.22;;;3.70;97.10;;;;;;5056011;28;20263;-66
2022/01/09 06:20:47;;;;;;;6.95;4.50;;;3.80;97.30;;;;;;5055268;28;20257;-65
2022/01/09 06:23:16;;;;;;;5.43;4.38;;;3.80;97.40;;;;;;5055825;28;20237;-65
2022/01/09 06:25:43;;;;;;;5.57;4.50;;;3.90;97.30;;;;;;5042152;28;20309;-65
2022/01/09 06:28:10;;;;;;;6.18;5.57;;;3.90;97.30;;;;;;5055623;28;20221;-65
2022/01/09 06:30:37;;;;;;;7.25;4.45;;;3.90;97.20;;;;;;5055337;28;20243;-65
2022/01/09 06:33:03;;;;;;;6.13;4.60;;;3.90;97.40;;;;;;5055352;28;20702;-65
2022/01/09 06:35:30;;;;;;;6.00;4.60;;;4.00;97.60;;;;;;5055398;28;20225;-65
2022/01/09 06:37:58;;;;;;;6.07;5.25;;;3.90;97.40;;;;;;5055108;28;20232;-65
2022/01/09 06:40:26;;;;;;;6.75;4.70;;;4.00;97.40;;;;;;5052333;28;20240;-65
2022/01/09 06:42:52;;;;;;;6.85;4.90;;;4.00;97.00;;;;;;5049533;28;20225;-65
2022/01/09 06:45:21;;;;;;;6.38;5.18;;;4.00;97.00;;;;;;5055460;28;20236;-65
2022/01/09 06:47:48;;;;;;;6.20;4.93;;;3.90;97.10;;;;;;5054543;28;20225;-65
2022/01/09 06:50:15;;;;;;;5.07;4.25;;;3.90;97.20;;;;;;5055358;28;20234;-64
2022/01/09 06:52:42;;;;;;;6.68;4.60;;;3.90;97.30;;;;;;5054781;28;20232;-66
2022/01/09 06:55:12;;;;;;;7.25;5.65;;;4.00;97.40;;;;;;5055156;28;20229;-66
2022/01/09 06:57:39;;;;;;;8.95;5.55;;;4.10;97.20;;;;;;5054709;28;20233;-66
2022/01/09 07:00:08;;;;;;;7.03;4.15;;;4.20;97.00;;;;;;5055154;28;20224;-66
2022/01/09 07:02:35;;;;;;;4.35;3.95;;;4.10;97.10;;;;;;5054518;28;20692;-66
2022/01/09 07:05:02;;;;;;;5.38;4.60;;;4.20;96.80;;;;;;5054046;28;20237;-65
2022/01/09 07:07:29;;;;;;;8.50;5.70;;;4.20;96.70;;;;;;5051224;28;20225;-65
2022/01/09 07:09:56;;;;;;;5.60;4.28;;;4.30;96.80;;;;;;5054102;28;20231;-64
2022/01/09 07:12:24;;;;;;;5.22;4.47;;;4.30;96.50;;;;;;5054759;28;20288;-64
2022/01/09 07:14:51;;;;;;;5.70;4.85;;;4.30;96.60;;;;;;5054480;28;20233;-65
2022/01/09 07:17:18;;;;;;;7.95;5.50;;;4.30;96.40;;;;;;5054831;28;20229;-66
2022/01/09 07:19:45;;;;;;;5.32;4.72;;;4.20;96.40;;;;;;5054187;28;20240;-65
2022/01/09 07:22:12;;;;;;;4.72;4.28;;;4.20;96.50;;;;;;5049334;28;20247;-64
2022/01/09 07:24:39;;;;;;;7.25;5.43;;;4.20;96.40;;;;;;5054306;28;20690;-65
2022/01/09 07:27:07;;;;;;;6.15;4.60;;;4.30;96.60;;;;;;5054291;28;20235;-65
2022/01/09 07:29:35;;;;;;;7.22;5.13;;;4.20;96.50;;;;;;5054014;28;20330;-65
2022/01/09 07:32:02;;;;;;;8.23;6.43;;;4.20;96.40;;;;;;5054211;28;20314;-65
2022/01/09 07:34:29;;;;;;;8.98;6.50;;;4.30;96.50;;;;;;5054598;28;20228;-64
2022/01/09 07:36:55;;;;;;;6.85;6.10;;;4.30;96.40;;;;;;5052606;28;20217;-64
2022/01/09 07:39:22;;;;;;;6.03;4.43;;;4.30;96.30;;;;;;5054170;28;20234;-65
2022/01/09 07:41:50;;;;;;;11.27;6.68;;;4.40;96.40;;;;;;5048045;28;20241;-65
2022/01/09 07:44:17;;;;;;;11.10;5.60;;;4.50;96.40;;;;;;5054329;28;20268;-65
2022/01/09 07:46:45;;;;;;;7.20;5.00;;;4.50;96.30;;;;;;5053823;28;20694;-65
2022/01/09 07:49:12;;;;;;;6.65;4.70;;;4.60;96.00;;;;;;5053773;28;20228;-66
2022/01/09 07:51:38;;;;;;;8.40;5.40;;;4.70;96.10;;;;;;5053142;28;20248;-65
2022/01/09 07:54:05;;;;;;;5.70;5.20;;;4.60;95.80;;;;;;5052713;28;20223;-65
2022/01/09 07:56:32;;;;;;;6.88;5.80;;;4.70;96.00;;;;;;5052061;28;20723;-65
2022/01/09 07:58:59;;;;;;;5.78;5.07;;;4.60;95.80;;;;;;5052738;28;20224;-65
2022/01/09 08:01:27;;;;;;;6.80;6.00;;;4.60;95.70;;;;;;5053322;28;20232;-64
2022/01/09 08:03:55;;;;;;;6.13;5.30;;;4.60;95.80;;;;;;5052792;28;20224;-65
2022/01/09 08:06:22;;;;;;;7.38;5.30;;;4.50;95.70;;;;;;5053114;28;20214;-65
2022/01/09 08:08:49;;;;;;;8.27;5.45;;;4.60;95.80;;;;;;5053276;28;20696;-65
2022/01/09 08:11:17;;;;;;;7.95;5.72;;;4.60;95.90;;;;;;5053755;28;20233;-65
2022/01/09 08:13:45;;;;;;;8.70;5.45;;;4.60;95.60;;;;;;5053273;28;20312;-65
2022/01/09 08:16:11;;;;;;;9.77;6.38;;;4.70;95.70;;;;;;5053876;28;20291;-65
2022/01/09 08:18:38;;;;;;;5.75;5.13;;;4.70;95.50;;;;;;5053246;28;20243;-66
2022/01/09 08:21:07;;;;;;;7.15;5.28;;;4.70;95.50;;;;;;5053515;28;20688;-65
2022/01/09 08:23:33;;;;;;;6.25;5.35;;;4.70;95.50;;;;;;5053637;28;20237;-66
2022/01/09 08:26:00;;;;;;;7.72;5.63;;;4.70;95.40;;;;;;5053200;28;20673;-65
2022/01/09 08:28:27;;;;;;;8.07;5.95;;;4.60;95.50;;;;;;5053749;28;20226;-65
2022/01/09 08:30:54;;;;;;;7.40;5.78;;;4.60;95.70;;;;;;5053196;28;20233;-65
2022/01/09 08:33:24;;;;;;;6.60;5.90;;;4.60;95.60;;;;;;5053181;28;20227;-65
2022/01/09 08:35:51;;;;;;;7.68;5.25;;;4.70;95.50;;;;;;5053094;28;20715;-65
2022/01/09 08:38:20;;;;;;;7.18;5.97;;;4.70;95.90;;;;;;5052675;28;20609;-65
2022/01/09 08:40:47;;;;;;;8.05;5.95;;;4.70;95.40;;;;;;5052820;28;20319;-65
2022/01/09 08:43:14;;;;;;;10.98;6.20;;;4.80;95.50;;;;;;5043983;28;20317;-65
2022/01/09 08:45:41;;;;;;;8.25;6.22;;;4.80;95.40;;;;;;5052847;28;20718;-65
2022/01/09 08:48:07;;;;;;;8.05;5.78;;;4.70;95.30;;;;;;5053301;28;20233;-65
2022/01/09 08:50:35;;;;;;;7.00;5.75;;;4.70;95.40;;;;;;5040755;28;20234;-65
2022/01/09 08:53:01;;;;;;;9.30;6.25;;;4.70;95.30;;;;;;5034177;28;20227;-65
2022/01/09 08:55:31;;;;;;;8.40;6.00;;;4.80;95.50;;;;;;5053138;28;20230;-65
2022/01/09 08:57:58;;;;;;;8.80;6.75;;;4.80;95.30;;;;;;5052613;28;20233;-66
2022/01/09 09:00:25;;;;;;;10.73;6.15;;;4.90;95.30;;;;;;5052780;28;20236;-65
2022/01/09 09:02:52;;;;;;;6.20;5.55;;;4.80;95.10;;;;;;5052572;28;20722;-65
2022/01/09 09:05:20;;;;;;;8.40;5.72;;;4.80;95.20;;;;;;5053067;28;20237;-65
2022/01/09 09:07:47;;;;;;;6.43;4.68;;;4.80;95.10;;;;;;5052340;28;20225;-65
2022/01/09 09:10:14;;;;;;;7.57;5.55;;;4.90;95.00;;;;;;5052823;28;20236;-65
2022/01/09 09:12:42;;;;;;;6.00;5.22;;;4.90;94.80;;;;;;5052583;28;20553;-65
2022/01/09 09:15:09;;;;;;;6.88;5.50;;;4.90;94.90;;;;;;5052813;28;20772;-65
2022/01/09 09:17:37;;;;;;;8.50;5.20;;;5.00;95.10;;;;;;5052582;28;20222;-65
2022/01/09 09:20:05;;;;;;;8.93;5.90;;;5.10;95.00;;;;;;5052243;28;20234;-65
2022/01/09 09:22:32;;;;;;;6.70;5.88;;;5.10;94.70;;;;;;5052625;28;20284;-65
2022/01/09 09:24:59;;;;;;;7.63;5.13;;;5.20;94.70;;;;;;5052229;28;20244;-65
2022/01/09 09:27:30;;;;;;;6.78;6.00;;;5.10;94.70;;;;;;5052699;28;20226;-65
2022/01/09 09:30:00;;;;;;;7.65;5.45;;;5.10;94.80;;;;;;5052158;28;20249;-66
2022/01/09 09:32:26;;;;;;;6.90;4.97;;;5.20;94.70;;;;;;5052389;28;20627;-65
2022/01/09 09:34:53;;;;;;;6.28;5.13;;;5.10;94.60;;;;;;5052173;28;20219;-65
2022/01/09 09:37:21;;;;;;;6.15;4.97;;;5.10;94.70;;;;;;5052408;28;20309;-65
2022/01/09 09:39:48;;;;;;;9.38;6.03;;;5.10;94.70;;;;;;5051763;28;20248;-66
2022/01/09 09:42:16;;;;;;;5.50;4.85;;;5.20;94.80;;;;;;5052582;28;20299;-65
2022/01/09 09:44:43;;;;;;;5.68;5.18;;;5.20;95.00;;;;;;5051818;28;20234;-65
2022/01/09 09:47:12;;;;;;;5.00;4.50;;;5.30;94.90;;;;;;5052450;28;20708;-65
2022/01/09 09:49:39;;;;;;;7.18;5.35;;;5.40;94.80;;;;;;5054109;28;21610;-65
2022/01/09 09:52:07;;;;;;;6.70;5.85;;;5.50;94.80;;;;;;5056021;28;20226;-65
2022/01/09 09:54:34;;;;;;;8.00;5.55;;;5.60;94.50;;;;;;5056451;28;20707;-66
2022/01/09 09:57:01;;;;;;;7.65;5.60;;;5.60;94.40;;;;;;5056065;28;20213;-65
2022/01/09 09:59:35;;;;;;;5.80;4.90;;;5.70;94.40;;;;;;5056189;28;20231;-65
2022/01/09 10:02:09;;;;;;;7.50;5.53;;;5.80;94.40;;;;;;5055874;28;20244;-65
2022/01/09 10:04:37;;;;;;;6.60;5.45;;;5.70;94.20;;;;;;5056481;28;20557;-65
2022/01/09 10:07:05;;;;;;;6.93;5.50;;;5.80;94.20;;;;;;5055609;28;20235;-66
2022/01/09 10:09:31;;;;;;;8.93;5.53;;;5.70;94.00;;;;;;5056027;28;20224;-66
2022/01/09 10:12:01;;;;;;;7.28;5.20;;;5.70;94.00;;;;;;5055845;28;20253;-66
2022/01/09 10:14:30;;;;;;;6.50;5.50;;;5.80;94.30;;;;;;5056052;28;20228;-65
2022/01/09 10:17:09;;;;;;;7.72;5.90;;;5.80;94.20;;;;;;5055780;28;20215;-66
2022/01/09 10:19:45;;;;;;;6.80;5.72;;;5.70;94.20;;;;;;5055987;28;20230;-66
2022/01/09 10:22:36;;;;;;;9.90;6.60;;;5.80;94.20;;;;;;5055688;28;20221;-66
2022/01/09 10:25:22;;;;;;;6.85;5.00;;;5.80;94.30;;;;;;5055711;28;20230;-66
2022/01/09 10:27:50;;;;;;;6.80;5.30;;;5.80;94.40;;;;;;5055569;28;20225;-66
2022/01/09 10:30:18;;;;;;;5.43;4.93;;;5.90;94.40;;;;;;5055630;28;20230;-66
2022/01/09 10:32:45;;;;;;;5.70;5.05;;;5.90;94.20;;;;;;5055529;28;20233;-66
2022/01/09 10:35:18;;;;;;;5.82;5.10;;;6.00;94.30;;;;;;5055475;28;20686;-66
2022/01/09 10:37:47;;;;;;;5.03;4.53;;;6.10;94.30;;;;;;5055570;28;20220;-66
2022/01/09 10:40:19;;;;;;;4.95;4.47;;;6.10;94.10;;;;;;5055216;28;20226;-66
2022/01/09 10:43:00;;;;;;;6.20;5.10;;;6.20;94.20;;;;;;5050822;28;20230;-64
2022/01/09 10:45:28;;;;;;;8.05;5.72;;;6.20;94.00;;;;;;5055986;28;20222;-65
2022/01/09 10:48:04;;;;;;;5.10;4.50;;;6.20;93.90;;;;;;5055267;28;20653;-65
2022/01/09 10:50:34;;;;;;;7.45;5.15;;;6.20;94.00;;;;;;5054955;28;20720;-65
2022/01/09 10:53:17;;;;;;;5.20;4.68;;;6.20;94.00;;;;;;5055065;28;20222;-65
2022/01/09 10:55:44;;;;;;;7.00;4.80;;;6.20;94.10;;;;;;5038586;28;20231;-65
2022/01/09 10:58:22;;;;;;;4.25;3.55;;;6.30;94.00;;;;;;5035420;28;20228;-65
2022/01/09 11:01:06;;;;;;;7.50;5.38;;;6.30;93.90;;;;;;5034045;28;20823;-65
2022/01/09 11:03:33;;;;;;;8.00;5.18;;;6.30;94.00;;;;;;5034868;28;20236;-65
2022/01/09 11:06:02;;;;;;;6.88;4.80;;;6.30;93.90;;;;;;5035030;28;20684;-65
2022/01/09 11:08:30;;;;;;;6.50;4.57;;;6.30;93.90;;;;;;5035263;28;20590;-64
2022/01/09 11:10:57;;;;;;;7.95;5.15;;;6.30;94.00;;;;;;5034826;28;20800;-65
2022/01/09 11:13:26;;;;;;;8.95;5.50;;;6.40;94.00;;;;;;5035061;28;20235;-65
2022/01/09 11:18:40;;;;;;;5.20;4.70;;;6.50;94.20;;;;;;5034573;28;20234;-65
2022/01/09 11:21:09;;;;;;;6.10;5.50;;;6.50;93.90;;;;;;5034956;28;20244;-65
2022/01/09 11:23:50;;;;;;;6.32;5.35;;;6.60;93.90;;;;;;5034437;28;20238;-65
2022/01/09 11:26:18;;;;;;;7.60;5.05;;;6.70;94.00;;;;;;5034823;28;20779;-65
2022/01/09 11:28:49;;;;;;;8.07;5.95;;;6.70;93.90;;;;;;5034508;28;20577;-65
2022/01/09 11:31:28;;;;;;;8.30;5.40;;;6.70;93.90;;;;;;5034580;28;20232;-65
2022/01/09 11:34:08;;;;;;;10.38;5.65;;;6.80;93.70;;;;;;5034167;28;20234;-65
2022/01/09 11:36:45;;;;;;;6.25;4.72;;;6.80;93.90;;;;;;5034345;28;20240;-65
2022/01/09 11:39:18;;;;;;;5.38;4.55;;;6.90;93.80;;;;;;5034535;28;20231;-65
2022/01/09 11:41:46;;;;;;;7.03;5.13;;;6.90;93.80;;;;;;5034182;28;20301;-65
2022/01/09 11:44:15;;;;;;;7.32;5.30;;;6.90;93.80;;;;;;5049710;28;20236;-65
2022/01/09 11:47:00;;;;;;;6.15;5.47;;;6.80;93.70;;;;;;5054081;28;20223;-65
2022/01/09 11:49:27;;;;;;;4.90;4.40;;;6.80;93.70;;;;;;5054286;28;20227;-65
2022/01/09 11:51:57;;;;;;;5.30;4.75;;;6.80;93.90;;;;;;5053732;28;20318;-65
2022/01/09 11:54:25;;;;;;;6.50;4.72;;;6.80;93.80;;;;;;5053958;28;20212;-65
2022/01/09 11:56:55;;;;;;;6.75;5.32;;;6.80;93.90;;;;;;5053833;28;20226;-65
2022/01/09 11:59:25;;;;;;;4.45;3.95;;;6.80;93.90;;;;;;5054211;28;20302;-65
2022/01/09 12:01:53;;;;;;;6.30;4.80;;;6.80;94.00;;;;;;5053758;28;20230;-65
2022/01/09 12:05:05;;;;;;;6.57;5.13;;;6.80;94.00;;;;;;5054114;28;20241;-65
2022/01/09 12:08:05;;;;;;;5.45;4.28;;;6.80;93.80;;;;;;5054181;28;20220;-65
2022/01/09 12:10:37;;;;;;;6.35;5.13;;;6.90;94.10;;;;;;5053609;28;20250;-64
2022/01/09 12:13:05;;;;;;;7.18;4.75;;;6.90;94.10;;;;;;5052877;28;20227;-65
2022/01/09 12:15:40;;;;;;;5.68;4.97;;;6.90;94.10;;;;;;5053516;28;20241;-64
2022/01/09 12:18:08;;;;;;;5.10;4.63;;;6.90;94.20;;;;;;5053837;28;20234;-65
2022/01/09 12:20:42;;;;;;;7.35;4.65;;;7.00;94.40;;;;;;5053228;28;20232;-65
2022/01/09 12:23:21;;;;;;;5.20;4.43;;;7.00;94.10;;;;;;5053622;28;20239;-65
2022/01/09 12:25:51;;;;;;;8.15;4.65;;;7.00;94.40;;;;;;5053302;28;20384;-65
2022/01/09 12:28:21;;;;;;;5.65;5.15;;;7.10;94.40;;;;;;5053679;28;20223;-64
2022/01/09 12:30:52;;;;;;;7.40;6.72;;;7.20;94.60;;;;;;5053213;28;20227;-64
2022/01/09 12:33:49;;;;;;;6.25;4.65;;;7.30;94.40;;;;;;5042400;28;20227;-65
2022/01/09 12:36:26;;;;;;;7.95;4.90;;;7.40;94.40;;;;;;5033639;28;20243;-65
2022/01/09 12:38:58;;;;;;;5.10;4.60;;;7.40;94.30;;;;;;5033453;28;20224;-65
2022/01/09 12:41:34;;;;;;;5.72;4.03;;;7.50;94.20;;;;;;5032994;28;20248;-65
2022/01/09 12:44:05;;;;;;;8.65;5.18;;;7.60;94.40;;;;;;5051562;28;20228;-65
2022/01/09 12:46:34;;;;;;;7.13;5.50;;;7.50;94.10;;;;;;5053273;28;20218;-65
2022/01/09 12:49:03;;;;;;;7.68;5.25;;;7.60;94.10;;;;;;5053286;28;20227;-65
2022/01/09 12:51:32;;;;;;;7.75;5.35;;;7.70;94.30;;;;;;5052664;28;20234;-65
2022/01/09 12:54:04;;;;;;;8.73;5.53;;;7.70;94.20;;;;;;5053076;28;20616;-65
2022/01/09 12:56:33;;;;;;;6.07;5.47;;;7.80;94.10;;;;;;5052729;28;20588;-66
2022/01/09 12:59:01;;;;;;;6.93;6.25;;;7.80;94.10;;;;;;5053165;28;20222;-65
2022/01/09 13:01:31;;;;;;;10.07;9.18;;;7.70;94.10;;;;;;5052473;28;22975;-65
2022/01/09 13:04:00;;;;;;;12.65;11.35;;;7.70;94.00;;;;;;5051940;28;20226;-65
2022/01/09 13:06:29;;;;;;;7.65;6.40;;;7.80;94.20;;;;;;5042539;28;20235;-66